Time;durP1;ratioP1;P1;durP2;ratioP2;P2;SDS_P1;SDS_P2;PMS_P1;PMS_P2;Temp;Humidity;BMP_temperature;BMP_pressure;BME280_temperature;BME280_humidity;BME280_pressure;Samples;Min_cycle;Max_cycle;Signal;HPM_P1;HPM_P2
2023/01/23 00:00:52;;;;;;;32.23;16.47;;;;;;;;;;5027372;28;20214;-70
2023/01/23 00:03:17;;;;;;;33.33;16.43;;;;;;;;;;5045508;28;20189;-70
2023/01/23 00:05:43;;;;;;;32.13;15.97;;;;;;;;;;5034965;28;20252;-70
2023/01/23 00:08:09;;;;;;;32.07;17.10;;;;;;;;;;5033998;28;20735;-70
2023/01/23 00:10:37;;;;;;;32.53;16.57;;;;;;;;;;5042416;28;20590;-71
2023/01/23 00:13:02;;;;;;;33.53;16.63;;;;;;;;;;5044764;28;20185;-70
2023/01/23 00:15:27;;;;;;;32.30;16.60;;;;;;;;;;5041456;28;20654;-70
2023/01/23 00:17:53;;;;;;;35.23;16.17;;;;;;;;;;5039435;28;20304;-70
2023/01/23 00:20:18;;;;;;;28.43;15.30;;;;;;;;;;5040028;28;20625;-70
2023/01/23 00:22:44;;;;;;;36.93;17.03;;;;;;;;;;5028013;28;20193;-70
2023/01/23 00:25:09;;;;;;;32.70;16.23;;;;;;;;;;5031038;28;20242;-70
2023/01/23 00:27:35;;;;;;;28.70;15.70;;;;;;;;;;5028858;28;20182;-70
2023/01/23 00:30:00;;;;;;;31.40;16.50;;;;;;;;;;5027792;28;20597;-70
2023/01/23 00:32:26;;;;;;;32.37;16.43;;;;;;;;;;5029642;28;20214;-70
2023/01/23 00:34:52;;;;;;;30.93;16.10;;;;;;;;;;5034124;28;20549;-70
2023/01/23 00:37:17;;;;;;;29.90;16.13;;;;;;;;;;5022951;28;20194;-70
2023/01/23 00:39:44;;;;;;;29.23;16.17;;;;;;;;;;5026926;28;20174;-70
2023/01/23 00:42:10;;;;;;;28.33;15.67;;;;;;;;;;5013546;28;20190;-70
2023/01/23 00:44:35;;;;;;;37.47;16.57;;;;;;;;;;5027960;28;20185;-70
2023/01/23 00:47:01;;;;;;;31.97;16.37;;;;;;;;;;5019396;28;20669;-70
2023/01/23 00:49:26;;;;;;;27.97;15.50;;;;;;;;;;5034825;28;20217;-70
2023/01/23 00:51:55;;;;;;;31.90;16.40;;;;;;;;;;5027306;28;20221;-70
2023/01/23 00:54:20;;;;;;;31.00;16.13;;;;;;;;;;5025942;28;20178;-70
2023/01/23 00:56:46;;;;;;;28.10;15.27;;;;;;;;;;5015818;28;20289;-71
2023/01/23 00:59:12;;;;;;;31.47;16.03;;;;;;;;;;5029201;28;20212;-70
2023/01/23 01:01:37;;;;;;;29.13;15.47;;;;;;;;;;5025225;28;20278;-70
2023/01/23 01:04:06;;;;;;;33.13;16.90;;;;;;;;;;5028221;28;20179;-70
2023/01/23 01:06:31;;;;;;;35.03;16.53;;;;;;;;;;5025763;28;20233;-70
2023/01/23 01:08:57;;;;;;;36.83;16.60;;;;;;;;;;5025517;28;20242;-70
2023/01/23 01:11:23;;;;;;;34.70;15.77;;;;;;;;;;5027489;28;20187;-70
2023/01/23 01:13:49;;;;;;;36.27;16.90;;;;;;;;;;5034062;28;20755;-70
2023/01/23 01:16:15;;;;;;;29.17;16.40;;;;;;;;;;5028877;28;20263;-70
2023/01/23 01:18:41;;;;;;;32.27;15.20;;;;;;;;;;5019091;28;20187;-70
2023/01/23 01:21:11;;;;;;;31.30;16.17;;;;;;;;;;5029773;28;20186;-70
2023/01/23 01:23:37;;;;;;;28.07;15.93;;;;;;;;;;5023837;28;20350;-70
2023/01/23 01:26:03;;;;;;;29.37;15.80;;;;;;;;;;5021419;28;20700;-70
2023/01/23 01:28:31;;;;;;;32.23;16.30;;;;;;;;;;5034736;28;20845;-70
2023/01/23 01:31:01;;;;;;;32.47;16.13;;;;;;;;;;5029200;28;20240;-70
2023/01/23 01:33:27;;;;;;;31.20;15.30;;;;;;;;;;5039218;28;20260;-70
2023/01/23 01:35:55;;;;;;;32.13;15.67;;;;;;;;;;5032308;28;20181;-70
2023/01/23 01:38:21;;;;;;;25.23;14.77;;;;;;;;;;5033058;28;20185;-70
2023/01/23 01:40:46;;;;;;;31.77;15.87;;;;;;;;;;5032680;28;20585;-70
2023/01/23 01:43:24;;;;;;;28.93;15.03;;;;;;;;;;5033747;28;20185;-70
2023/01/23 01:46:09;;;;;;;28.73;15.13;;;;;;;;;;5020609;28;20190;-70
2023/01/23 01:48:37;;;;;;;25.77;14.67;;;;;;;;;;5016752;28;20198;-70
2023/01/23 01:51:14;;;;;;;28.57;15.10;;;;;;;;;;5031738;28;20244;-70
2023/01/23 01:53:40;;;;;;;27.60;15.33;;;;;;;;;;5027850;28;20201;-70
2023/01/23 01:56:10;;;;;;;28.70;15.50;;;;;;;;;;5024617;28;20193;-70
2023/01/23 01:58:37;;;;;;;29.47;15.43;;;;;;;;;;5033474;28;20232;-70
2023/01/23 02:01:02;;;;;;;30.47;15.27;;;;;;;;;;5024315;28;20617;-70
2023/01/23 02:03:28;;;;;;;28.97;14.97;;;;;;;;;;5027761;28;20654;-70
2023/01/23 02:05:54;;;;;;;33.13;16.10;;;;;;;;;;5033337;28;20193;-70
2023/01/23 02:08:30;;;;;;;36.30;15.60;;;;;;;;;;5025219;28;20544;-70
2023/01/23 02:10:55;;;;;;;31.23;15.90;;;;;;;;;;5026405;28;20202;-70
2023/01/23 02:13:33;;;;;;;26.27;15.13;;;;;;;;;;5031091;28;20193;-70
2023/01/23 02:16:02;;;;;;;30.63;16.03;;;;;;;;;;5026290;28;20193;-70
2023/01/23 02:18:30;;;;;;;32.73;15.97;;;;;;;;;;5020611;28;20187;-70
2023/01/23 02:20:58;;;;;;;29.77;15.50;;;;;;;;;;5029579;28;20692;-70
2023/01/23 02:23:41;;;;;;;29.50;15.47;;;;;;;;;;5034947;28;20286;-70
2023/01/23 02:26:12;;;;;;;31.23;15.30;;;;;;;;;;5031823;28;20591;-70
2023/01/23 02:28:46;;;;;;;29.90;15.07;;;;;;;;;;5034642;28;20295;-70
2023/01/23 02:31:13;;;;;;;31.57;14.97;;;;;;;;;;5029626;28;20642;-70
2023/01/23 02:33:38;;;;;;;25.40;14.73;;;;;;;;;;5012742;28;20234;-70
2023/01/23 02:36:07;;;;;;;33.63;15.77;;;;;;;;;;5041029;28;20190;-70
2023/01/23 02:38:38;;;;;;;28.50;16.03;;;;;;;;;;5025345;28;20277;-70
2023/01/23 02:41:08;;;;;;;31.33;15.70;;;;;;;;;;5031520;28;20707;-70
2023/01/23 02:43:36;;;;;;;27.73;15.57;;;;;;;;;;5021755;28;20188;-70
2023/01/23 02:46:09;;;;;;;26.77;15.37;;;;;;;;;;5024120;28;20621;-70
2023/01/23 02:48:35;;;;;;;31.53;16.87;;;;;;;;;;5028969;28;20560;-70
2023/01/23 02:51:01;;;;;;;30.17;15.10;;;;;;;;;;5033655;28;20265;-70
2023/01/23 02:53:26;;;;;;;30.10;14.60;;;;;;;;;;5027403;28;20212;-70
2023/01/23 02:55:52;;;;;;;29.30;15.30;;;;;;;;;;5028960;28;20194;-70
2023/01/23 03:01:03;;;;;;;29.97;15.93;;;;;;;;;;5026428;28;20225;-70
2023/01/23 03:03:29;;;;;;;32.60;15.60;;;;;;;;;;5023849;28;20205;-70
2023/01/23 03:05:55;;;;;;;30.23;16.80;;;;;;;;;;5035907;28;20264;-70
2023/01/23 03:08:20;;;;;;;26.67;14.77;;;;;;;;;;5037755;28;20697;-70
2023/01/23 03:10:46;;;;;;;27.70;15.63;;;;;;;;;;5026449;28;20218;-70
2023/01/23 03:13:12;;;;;;;31.03;16.20;;;;;;;;;;5022663;28;20531;-70
2023/01/23 03:15:38;;;;;;;27.60;15.97;;;;;;;;;;5017037;28;20195;-70
2023/01/23 03:18:04;;;;;;;30.83;15.73;;;;;;;;;;5028883;28;20229;-70
2023/01/23 03:20:36;;;;;;;25.57;15.77;;;;;;;;;;5024265;28;20685;-70
2023/01/23 03:23:01;;;;;;;26.97;15.40;;;;;;;;;;5021899;28;20678;-70
2023/01/23 03:25:27;;;;;;;28.57;15.47;;;;;;;;;;5032717;28;20253;-70
2023/01/23 03:27:52;;;;;;;26.83;15.27;;;;;;;;;;5024497;28;20194;-70
2023/01/23 03:30:20;;;;;;;28.53;15.60;;;;;;;;;;5028640;28;20285;-70
2023/01/23 03:32:46;;;;;;;33.37;15.70;;;;;;;;;;5040689;28;20190;-71
2023/01/23 03:35:15;;;;;;;28.83;15.27;;;;;;;;;;5044826;28;20690;-70
2023/01/23 03:37:41;;;;;;;31.53;15.90;;;;;;;;;;5004977;28;20186;-70
2023/01/23 03:43:03;;;;;;;30.10;15.43;;;;;;;;;;5027738;28;20259;-70
2023/01/23 03:45:28;;;;;;;30.23;14.50;;;;;;;;;;5026745;28;20218;-70
2023/01/23 03:47:53;;;;;;;26.97;15.37;;;;;;;;;;5030746;28;20190;-70
2023/01/23 03:50:19;;;;;;;25.80;15.63;;;;;;;;;;5028126;28;20213;-70
2023/01/23 03:52:44;;;;;;;28.40;14.97;;;;;;;;;;5026594;28;20601;-70
2023/01/23 03:55:10;;;;;;;33.07;15.43;;;;;;;;;;5023342;28;20205;-70
2023/01/23 03:57:35;;;;;;;28.80;14.97;;;;;;;;;;5022034;28;20263;-70
2023/01/23 04:00:01;;;;;;;27.23;15.23;;;;;;;;;;5026898;28;20233;-70
2023/01/23 04:02:28;;;;;;;31.20;15.53;;;;;;;;;;5027659;28;20198;-70
2023/01/23 04:04:53;;;;;;;24.47;15.37;;;;;;;;;;5017050;28;20201;-70
2023/01/23 04:07:18;;;;;;;30.10;15.10;;;;;;;;;;5020754;28;20413;-70
2023/01/23 04:09:44;;;;;;;31.40;14.97;;;;;;;;;;5025049;28;20260;-69
2023/01/23 04:12:09;;;;;;;29.57;15.60;;;;;;;;;;5034682;28;20198;-70
2023/01/23 04:14:36;;;;;;;32.00;14.80;;;;;;;;;;5029683;28;20272;-70
2023/01/23 04:17:03;;;;;;;32.97;14.83;;;;;;;;;;5013451;28;20702;-70
2023/01/23 04:19:29;;;;;;;28.43;15.27;;;;;;;;;;5027418;28;20178;-70
2023/01/23 04:21:54;;;;;;;29.90;16.30;;;;;;;;;;5023804;28;20249;-70
2023/01/23 04:24:19;;;;;;;24.73;15.17;;;;;;;;;;5032820;28;20224;-70
2023/01/23 04:26:45;;;;;;;28.13;15.03;;;;;;;;;;5026706;28;20233;-70
2023/01/23 04:29:10;;;;;;;31.27;14.77;;;;;;;;;;5028315;28;20603;-70
2023/01/23 04:31:36;;;;;;;28.17;15.33;;;;;;;;;;5022735;28;20190;-70
2023/01/23 04:34:02;;;;;;;28.97;14.37;;;;;;;;;;5034106;28;20190;-70
2023/01/23 04:36:27;;;;;;;28.53;15.27;;;;;;;;;;5022120;28;20281;-70
2023/01/23 04:38:53;;;;;;;29.10;16.43;;;;;;;;;;5025070;28;20306;-70
2023/01/23 04:41:24;;;;;;;27.20;15.20;;;;;;;;;;5029243;28;20206;-70
2023/01/23 04:43:49;;;;;;;25.03;15.27;;;;;;;;;;5027895;28;20759;-70
2023/01/23 04:46:15;;;;;;;33.10;15.77;;;;;;;;;;5026656;28;20233;-70
2023/01/23 04:48:40;;;;;;;25.77;14.37;;;;;;;;;;5027013;28;20610;-70
2023/01/23 04:51:05;;;;;;;27.90;15.13;;;;;;;;;;5023544;28;20293;-70
2023/01/23 04:53:31;;;;;;;32.27;15.17;;;;;;;;;;5022478;28;20681;-70
2023/01/23 04:55:57;;;;;;;28.17;15.03;;;;;;;;;;5021207;28;20284;-70
2023/01/23 04:58:22;;;;;;;27.13;15.23;;;;;;;;;;5016636;28;20204;-70
2023/01/23 05:00:47;;;;;;;29.83;15.60;;;;;;;;;;5027913;28;20669;-70
2023/01/23 05:03:13;;;;;;;29.67;14.20;;;;;;;;;;5026872;28;20186;-70
2023/01/23 05:05:39;;;;;;;26.80;14.80;;;;;;;;;;5027681;28;20252;-70
2023/01/23 05:08:05;;;;;;;27.00;14.90;;;;;;;;;;5029054;28;20185;-70
2023/01/23 05:10:30;;;;;;;25.07;14.77;;;;;;;;;;5043793;28;20645;-70
2023/01/23 05:12:55;;;;;;;31.83;15.87;;;;;;;;;;5034145;28;20665;-70
2023/01/23 05:15:21;;;;;;;30.43;15.03;;;;;;;;;;5042750;28;20264;-70
2023/01/23 05:17:47;;;;;;;27.73;14.60;;;;;;;;;;5041347;28;20205;-70
2023/01/23 05:20:13;;;;;;;25.83;14.60;;;;;;;;;;5043168;28;20174;-70
2023/01/23 05:22:50;;;;;;;30.63;14.47;;;;;;;;;;5037656;28;20212;-70
2023/01/23 05:25:17;;;;;;;30.57;14.73;;;;;;;;;;5039717;28;20314;-71
2023/01/23 05:27:42;;;;;;;29.57;15.43;;;;;;;;;;5042925;28;20186;-70
2023/01/23 05:30:08;;;;;;;25.93;15.07;;;;;;;;;;5037037;28;20626;-70
2023/01/23 05:32:33;;;;;;;29.33;15.57;;;;;;;;;;5035608;28;20185;-69
2023/01/23 05:34:59;;;;;;;28.87;15.47;;;;;;;;;;5035095;28;20225;-70
2023/01/23 05:37:24;;;;;;;27.67;15.13;;;;;;;;;;5028473;28;20185;-70
2023/01/23 05:39:50;;;;;;;28.27;15.27;;;;;;;;;;5034122;28;20269;-70
2023/01/23 05:42:15;;;;;;;28.33;16.40;;;;;;;;;;5035974;28;20694;-70
2023/01/23 05:44:40;;;;;;;27.97;14.60;;;;;;;;;;5032365;28;20212;-70
2023/01/23 05:47:06;;;;;;;26.17;16.10;;;;;;;;;;5025089;28;20631;-70
2023/01/23 05:49:31;;;;;;;33.40;16.23;;;;;;;;;;5024363;28;20269;-70
2023/01/23 05:51:56;;;;;;;30.47;16.53;;;;;;;;;;5024291;28;20212;-70
2023/01/23 05:54:22;;;;;;;31.93;16.83;;;;;;;;;;5028446;28;20185;-70
2023/01/23 05:56:47;;;;;;;27.87;16.77;;;;;;;;;;5031565;28;20186;-70
2023/01/23 05:59:12;;;;;;;33.73;16.63;;;;;;;;;;5036831;28;20201;-70
2023/01/23 06:01:38;;;;;;;28.23;16.70;;;;;;;;;;5032015;28;20212;-70
2023/01/23 06:04:03;;;;;;;27.97;16.90;;;;;;;;;;5035533;28;20189;-71
2023/01/23 06:06:29;;;;;;;28.57;15.97;;;;;;;;;;5034134;28;20197;-70
2023/01/23 06:08:54;;;;;;;32.40;17.63;;;;;;;;;;5036625;28;20202;-70
2023/01/23 06:11:19;;;;;;;27.23;15.93;;;;;;;;;;5034047;28;20196;-70
2023/01/23 06:13:45;;;;;;;27.80;16.97;;;;;;;;;;5035459;28;20193;-70
2023/01/23 06:16:10;;;;;;;35.93;16.33;;;;;;;;;;5032673;28;20185;-70
2023/01/23 06:18:35;;;;;;;30.07;16.23;;;;;;;;;;5023077;28;20178;-70
2023/01/23 06:21:01;;;;;;;31.97;17.33;;;;;;;;;;5039845;28;20335;-70
2023/01/23 06:23:27;;;;;;;29.37;17.13;;;;;;;;;;5028424;28;20178;-70
2023/01/23 06:25:52;;;;;;;37.53;19.67;;;;;;;;;;5030667;28;20725;-70
2023/01/23 06:28:18;;;;;;;34.37;17.20;;;;;;;;;;5030388;28;20190;-70
2023/01/23 06:30:43;;;;;;;31.77;17.23;;;;;;;;;;5030774;28;20646;-70
2023/01/23 06:33:08;;;;;;;32.27;17.90;;;;;;;;;;5031585;28;20281;-70
2023/01/23 06:35:34;;;;;;;31.27;17.37;;;;;;;;;;5029865;28;20193;-70
2023/01/23 06:37:59;;;;;;;29.50;18.13;;;;;;;;;;5025673;28;20187;-70
2023/01/23 06:40:25;;;;;;;29.37;17.57;;;;;;;;;;5036417;28;20209;-70
2023/01/23 06:42:53;;;;;;;31.30;17.97;;;;;;;;;;5047149;28;20185;-70
2023/01/23 06:45:19;;;;;;;37.33;18.93;;;;;;;;;;5042352;28;20563;-69
2023/01/23 06:47:44;;;;;;;34.10;18.43;;;;;;;;;;5044035;28;20247;-69
2023/01/23 06:50:10;;;;;;;32.93;17.63;;;;;;;;;;5042556;28;20300;-70
2023/01/23 06:52:35;;;;;;;35.33;18.97;;;;;;;;;;5043711;28;20469;-70
2023/01/23 06:55:00;;;;;;;35.37;18.83;;;;;;;;;;5040092;28;20196;-70
2023/01/23 06:57:26;;;;;;;34.23;18.70;;;;;;;;;;5045968;28;20664;-70
2023/01/23 06:59:51;;;;;;;36.17;19.13;;;;;;;;;;5040135;28;20216;-69
2023/01/23 07:02:17;;;;;;;33.33;19.30;;;;;;;;;;5036465;28;20710;-70
2023/01/23 07:04:42;;;;;;;37.37;20.20;;;;;;;;;;5042887;28;20189;-70
2023/01/23 07:07:07;;;;;;;38.53;20.43;;;;;;;;;;5040191;28;20239;-70
2023/01/23 07:09:33;;;;;;;35.83;20.67;;;;;;;;;;5038789;28;20240;-70
2023/01/23 07:11:58;;;;;;;37.23;19.43;;;;;;;;;;5037773;28;20189;-69
2023/01/23 07:14:26;;;;;;;38.37;20.97;;;;;;;;;;5040048;28;20193;-70
2023/01/23 07:16:53;;;;;;;35.57;20.40;;;;;;;;;;5040300;28;20185;-70
2023/01/23 07:19:18;;;;;;;36.67;20.60;;;;;;;;;;5036107;28;20182;-70
2023/01/23 07:21:44;;;;;;;40.70;21.07;;;;;;;;;;5043654;28;20603;-70
2023/01/23 07:24:09;;;;;;;35.30;21.40;;;;;;;;;;5039769;28;20193;-70
2023/01/23 07:26:35;;;;;;;38.37;20.63;;;;;;;;;;5033904;28;20225;-69
2023/01/23 07:29:00;;;;;;;39.33;21.47;;;;;;;;;;5021128;28;20252;-69
2023/01/23 07:31:25;;;;;;;34.03;20.77;;;;;;;;;;5029318;28;20292;-69
2023/01/23 07:33:51;;;;;;;42.67;22.20;;;;;;;;;;5024678;28;20217;-70
2023/01/23 07:36:17;;;;;;;37.40;21.07;;;;;;;;;;5036537;28;20190;-69
2023/01/23 07:38:42;;;;;;;43.67;20.90;;;;;;;;;;5030339;28;20502;-70
2023/01/23 07:41:08;;;;;;;36.00;21.47;;;;;;;;;;4332503;28;10000732;-70
2023/01/23 07:43:33;;;;;;;36.63;21.10;;;;;;;;;;5032523;28;20434;-70
2023/01/23 07:45:59;;;;;;;39.00;22.17;;;;;;;;;;5036919;28;20194;-70
2023/01/23 07:48:25;;;;;;;41.13;22.50;;;;;;;;;;5035783;28;20656;-70
2023/01/23 07:50:50;;;;;;;36.17;21.03;;;;;;;;;;5037911;28;20213;-71
2023/01/23 07:53:16;;;;;;;42.13;21.90;;;;;;;;;;5034095;28;20190;-69
2023/01/23 07:55:41;;;;;;;40.83;21.20;;;;;;;;;;5039669;28;20189;-70
2023/01/23 07:58:07;;;;;;;42.53;22.40;;;;;;;;;;5042391;28;20531;-70
2023/01/23 08:00:32;;;;;;;37.97;21.23;;;;;;;;;;5042420;28;20201;-70
2023/01/23 08:02:57;;;;;;;40.17;21.83;;;;;;;;;;5037145;28;20186;-69
2023/01/23 08:05:23;;;;;;;38.10;20.43;;;;;;;;;;5038397;28;20693;-69
2023/01/23 08:07:48;;;;;;;42.40;22.00;;;;;;;;;;5039108;28;20204;-69
2023/01/23 08:10:14;;;;;;;40.63;21.10;;;;;;;;;;5038002;28;20715;-69
2023/01/23 08:12:40;;;;;;;37.30;20.63;;;;;;;;;;5036125;28;20190;-69
2023/01/23 08:15:06;;;;;;;35.70;21.43;;;;;;;;;;5032673;28;20186;-69
2023/01/23 08:17:31;;;;;;;38.87;21.77;;;;;;;;;;5028266;28;20617;-69
2023/01/23 08:19:57;;;;;;;41.30;21.90;;;;;;;;;;5028181;28;20498;-69
2023/01/23 08:22:22;;;;;;;38.77;21.60;;;;;;;;;;5024530;28;20654;-69
2023/01/23 08:24:47;;;;;;;36.67;20.70;;;;;;;;;;5029188;28;20201;-69
2023/01/23 08:27:13;;;;;;;41.60;21.97;;;;;;;;;;5028369;28;20493;-69
2023/01/23 08:29:38;;;;;;;37.23;22.70;;;;;;;;;;5030194;28;20221;-69
2023/01/23 08:32:04;;;;;;;40.17;21.40;;;;;;;;;;5040325;28;20197;-69
2023/01/23 08:34:29;;;;;;;43.27;21.30;;;;;;;;;;5033518;28;20193;-69
2023/01/23 08:36:55;;;;;;;39.83;21.30;;;;;;;;;;5037904;28;20189;-69
2023/01/23 08:39:20;;;;;;;41.03;20.40;;;;;;;;;;5042300;28;20192;-69
2023/01/23 08:41:45;;;;;;;38.93;20.83;;;;;;;;;;5032557;28;20208;-69
2023/01/23 08:44:12;;;;;;;44.43;21.70;;;;;;;;;;5039510;28;20239;-69
2023/01/23 08:46:37;;;;;;;39.07;21.77;;;;;;;;;;5043751;28;20189;-70
2023/01/23 08:49:03;;;;;;;34.43;20.57;;;;;;;;;;5039161;28;20578;-70
2023/01/23 08:51:29;;;;;;;41.63;21.57;;;;;;;;;;5046360;28;20185;-69
2023/01/23 08:53:55;;;;;;;36.27;20.23;;;;;;;;;;5045144;28;20201;-69
2023/01/23 08:56:22;;;;;;;38.73;20.97;;;;;;;;;;5044404;28;20677;-69
2023/01/23 08:58:48;;;;;;;37.67;20.50;;;;;;;;;;5026862;28;20184;-69
2023/01/23 09:01:19;;;;;;;35.23;20.97;;;;;;;;;;5038825;28;20210;-69
2023/01/23 09:03:45;;;;;;;42.87;21.37;;;;;;;;;;5042138;28;20197;-69
2023/01/23 09:06:11;;;;;;;36.27;21.10;;;;;;;;;;5041524;28;20561;-69
2023/01/23 09:08:36;;;;;;;39.07;21.73;;;;;;;;;;5042912;28;20303;-69
2023/01/23 09:11:04;;;;;;;37.83;21.70;;;;;;;;;;5043601;28;20217;-69
2023/01/23 09:13:29;;;;;;;39.43;22.60;;;;;;;;;;5042320;28;20648;-69
2023/01/23 09:15:55;;;;;;;39.23;21.77;;;;;;;;;;5041532;28;20185;-69
2023/01/23 09:18:21;;;;;;;41.17;21.87;;;;;;;;;;5040887;28;20182;-69
2023/01/23 09:20:47;;;;;;;37.77;21.27;;;;;;;;;;5037921;28;20198;-68
2023/01/23 09:23:12;;;;;;;36.77;21.43;;;;;;;;;;5039033;28;20649;-68
2023/01/23 09:25:38;;;;;;;35.07;20.93;;;;;;;;;;5027261;28;20234;-70
2023/01/23 09:28:03;;;;;;;39.20;20.97;;;;;;;;;;5035044;28;20235;-70
2023/01/23 09:30:29;;;;;;;36.23;20.47;;;;;;;;;;5030184;28;20217;-69
2023/01/23 09:32:54;;;;;;;33.90;19.33;;;;;;;;;;5038744;28;20248;-69
2023/01/23 09:35:20;;;;;;;35.13;19.40;;;;;;;;;;5035872;28;20704;-69
2023/01/23 09:38:00;;;;;;;33.57;19.10;;;;;;;;;;5044347;28;20185;-69
2023/01/23 09:40:29;;;;;;;31.47;19.43;;;;;;;;;;5042134;28;20697;-69
2023/01/23 09:43:00;;;;;;;31.37;18.67;;;;;;;;;;5047072;28;20569;-69
2023/01/23 09:45:26;;;;;;;29.87;17.63;;;;;;;;;;5040734;28;20273;-69
2023/01/23 09:48:01;;;;;;;25.67;17.13;;;;;;;;;;5048258;28;20627;-69
2023/01/23 09:50:32;;;;;;;29.00;18.40;;;;;;;;;;5043920;28;20304;-70
2023/01/23 09:53:29;;;;;;;30.63;18.27;;;;;;;;;;5043456;28;20194;-69
2023/01/23 09:56:00;;;;;;;28.20;16.83;;;;;;;;;;5036175;28;20220;-69
2023/01/23 09:58:42;;;;;;;27.40;17.00;;;;;;;;;;5045854;28;20223;-69
2023/01/23 10:01:14;;;;;;;26.60;16.77;;;;;;;;;;5046147;28;20209;-69
2023/01/23 10:03:40;;;;;;;28.10;16.67;;;;;;;;;;5049577;28;20219;-69
2023/01/23 10:06:16;;;;;;;26.40;15.83;;;;;;;;;;5049518;28;20270;-69
2023/01/23 10:08:41;;;;;;;27.87;15.80;;;;;;;;;;5044566;28;20194;-69
2023/01/23 10:11:22;;;;;;;24.03;15.70;;;;;;;;;;5041066;28;20221;-68
2023/01/23 10:14:02;;;;;;;26.53;15.83;;;;;;;;;;5028395;28;20277;-69
2023/01/23 10:16:43;;;;;;;24.73;15.30;;;;;;;;;;5032860;28;20696;-69
2023/01/23 10:19:56;;;;;;;23.60;15.97;;;;;;;;;;5044727;28;20590;-68
2023/01/23 10:22:33;;;;;;;22.53;15.10;;;;;;;;;;5027602;28;20213;-69
2023/01/23 10:25:01;;;;;;;25.57;15.30;;;;;;;;;;5034459;28;20198;-69
2023/01/23 10:27:37;;;;;;;22.93;14.50;;;;;;;;;;5041385;28;20261;-69
2023/01/23 10:30:35;;;;;;;25.80;14.53;;;;;;;;;;5031940;28;20575;-69
2023/01/23 10:33:26;;;;;;;21.97;14.20;;;;;;;;;;5030940;28;20266;-69
2023/01/23 10:36:02;;;;;;;21.30;14.40;;;;;;;;;;5029934;28;20197;-70
2023/01/23 10:38:36;;;;;;;25.37;14.17;;;;;;;;;;5035706;28;20189;-70
2023/01/23 10:41:13;;;;;;;20.03;13.60;;;;;;;;;;5024104;28;20563;-70
2023/01/23 10:43:44;;;;;;;22.70;14.00;;;;;;;;;;5028617;28;20192;-70
2023/01/23 10:46:13;;;;;;;20.23;13.17;;;;;;;;;;5029286;28;20241;-70
2023/01/23 10:48:42;;;;;;;25.13;15.43;;;;;;;;;;5029011;28;20224;-70
2023/01/23 10:51:36;;;;;;;22.90;14.97;;;;;;;;;;5029500;28;20732;-70
2023/01/23 10:54:12;;;;;;;27.03;16.13;;;;;;;;;;5032793;28;20217;-70
2023/01/23 10:56:46;;;;;;;26.40;16.93;;;;;;;;;;5017519;28;20697;-69
2023/01/23 10:59:20;;;;;;;22.17;14.57;;;;;;;;;;5030607;28;20301;-69
2023/01/23 11:02:27;;;;;;;23.37;14.80;;;;;;;;;;5019099;28;20196;-69
2023/01/23 11:04:52;;;;;;;21.47;13.53;;;;;;;;;;5023664;28;20195;-70
2023/01/23 11:07:24;;;;;;;21.93;14.17;;;;;;;;;;5023136;28;20269;-69
2023/01/23 11:09:51;;;;;;;23.03;14.40;;;;;;;;;;5032253;28;20222;-70
2023/01/23 11:12:22;;;;;;;20.37;13.67;;;;;;;;;;5033311;28;20190;-70
2023/01/23 11:14:49;;;;;;;23.90;14.47;;;;;;;;;;5029687;28;20260;-70
2023/01/23 11:17:31;;;;;;;21.50;14.23;;;;;;;;;;5021829;28;20186;-70
2023/01/23 11:19:58;;;;;;;20.50;14.07;;;;;;;;;;5016494;28;21942;-70
2023/01/23 11:22:29;;;;;;;21.23;14.03;;;;;;;;;;5027236;28;20609;-69
2023/01/23 11:24:55;;;;;;;21.07;14.00;;;;;;;;;;5030044;28;20199;-70
2023/01/23 11:27:25;;;;;;;20.27;14.67;;;;;;;;;;5030036;28;20807;-70
2023/01/23 11:30:27;;;;;;;23.63;14.80;;;;;;;;;;5029843;28;20210;-69
2023/01/23 11:32:57;;;;;;;23.13;14.17;;;;;;;;;;5030821;28;20185;-68
2023/01/23 11:35:33;;;;;;;21.43;14.30;;;;;;;;;;5027335;28;20194;-69
2023/01/23 11:38:01;;;;;;;22.90;14.97;;;;;;;;;;5036693;28;20656;-69
2023/01/23 11:40:26;;;;;;;20.90;14.87;;;;;;;;;;5022754;28;20687;-69
2023/01/23 11:42:54;;;;;;;21.97;14.80;;;;;;;;;;5023517;28;20194;-69
2023/01/23 11:45:32;;;;;;;19.60;14.27;;;;;;;;;;5021111;28;20578;-68
2023/01/23 11:48:17;;;;;;;20.53;15.03;;;;;;;;;;5034642;28;20212;-69
2023/01/23 11:50:48;;;;;;;24.37;15.37;;;;;;;;;;5038968;28;20468;-69
2023/01/23 11:53:16;;;;;;;22.77;14.43;;;;;;;;;;5040250;28;20550;-70
2023/01/23 11:56:23;;;;;;;24.03;14.33;;;;;;;;;;5039585;28;20193;-68
2023/01/23 11:59:05;;;;;;;23.33;15.27;;;;;;;;;;5045970;28;20205;-69
2023/01/23 12:01:38;;;;;;;19.23;14.00;;;;;;;;;;5043490;28;20205;-69
2023/01/23 12:04:18;;;;;;;21.87;15.13;;;;;;;;;;5047738;28;20743;-70
2023/01/23 12:06:55;;;;;;;23.10;13.87;;;;;;;;;;5039984;28;20209;-70
2023/01/23 12:09:21;;;;;;;22.57;13.90;;;;;;;;;;5036676;28;20245;-69
2023/01/23 12:12:10;;;;;;;20.90;12.63;;;;;;;;;;5012003;28;20202;-69
2023/01/23 12:14:56;;;;;;;21.87;12.80;;;;;;;;;;5029371;28;20175;-69
2023/01/23 12:17:43;;;;;;;17.77;12.07;;;;;;;;;;5024262;28;20606;-69
2023/01/23 12:20:38;;;;;;;19.90;12.30;;;;;;;;;;5025839;28;20194;-69
2023/01/23 12:23:24;;;;;;;18.90;12.43;;;;;;;;;;5017233;28;20187;-69
2023/01/23 12:26:00;;;;;;;18.17;12.77;;;;;;;;;;5018274;28;20237;-69
2023/01/23 12:28:48;;;;;;;17.90;12.07;;;;;;;;;;5027506;28;20549;-70
2023/01/23 12:31:36;;;;;;;19.70;12.43;;;;;;;;;;5024778;28;20198;-68
2023/01/23 12:34:26;;;;;;;18.67;11.83;;;;;;;;;;5029123;28;20556;-69
2023/01/23 12:37:16;;;;;;;20.63;12.67;;;;;;;;;;5016278;28;20199;-69
2023/01/23 12:40:15;;;;;;;17.07;12.37;;;;;;;;;;5025465;28;20776;-69
2023/01/23 12:43:08;;;;;;;18.70;12.23;;;;;;;;;;5025450;28;20203;-68
2023/01/23 12:45:36;;;;;;;17.00;11.67;;;;;;;;;;5024144;28;20248;-68
2023/01/23 12:48:11;;;;;;;16.20;11.07;;;;;;;;;;5022738;28;20634;-68
2023/01/23 12:50:55;;;;;;;16.30;11.37;;;;;;;;;;5026351;28;20221;-67
2023/01/23 12:53:25;;;;;;;17.23;11.73;;;;;;;;;;5028121;28;20197;-68
2023/01/23 12:55:50;;;;;;;17.90;11.77;;;;;;;;;;5021065;28;20257;-69
2023/01/23 12:58:18;;;;;;;16.70;10.80;;;;;;;;;;5014860;28;20190;-68
2023/01/23 13:00:57;;;;;;;19.70;11.73;;;;;;;;;;5014161;28;20230;-68
2023/01/23 13:03:41;;;;;;;19.23;10.97;;;;;;;;;;5024304;28;20689;-68
2023/01/23 13:06:26;;;;;;;17.23;11.30;;;;;;;;;;5019619;28;20305;-68
2023/01/23 13:08:55;;;;;;;15.90;10.80;;;;;;;;;;5018990;28;20190;-68
2023/01/23 13:11:40;;;;;;;16.67;11.07;;;;;;;;;;5022942;28;20197;-68
2023/01/23 13:14:29;;;;;;;19.10;11.67;;;;;;;;;;5027867;28;20193;-68
2023/01/23 13:16:59;;;;;;;15.73;11.20;;;;;;;;;;5027384;28;20220;-68
2023/01/23 13:22:26;;;;;;;18.23;11.73;;;;;;;;;;5014160;28;20225;-68
2023/01/23 13:25:11;;;;;;;18.00;12.07;;;;;;;;;;5022949;28;20209;-68
2023/01/23 13:27:58;;;;;;;17.17;11.50;;;;;;;;;;5019251;28;20186;-68
2023/01/23 13:30:25;;;;;;;18.07;11.63;;;;;;;;;;5028718;28;20672;-68
2023/01/23 13:33:13;;;;;;;16.67;11.07;;;;;;;;;;5028513;28;20587;-68
2023/01/23 13:35:38;;;;;;;17.80;11.83;;;;;;;;;;5013475;28;20666;-68
2023/01/23 13:38:39;;;;;;;20.00;11.90;;;;;;;;;;5028310;28;20201;-68
2023/01/23 13:41:07;;;;;;;16.53;11.60;;;;;;;;;;5029058;28;20210;-68
2023/01/23 13:44:04;;;;;;;17.47;12.37;;;;;;;;;;5030004;28;20360;-68
2023/01/23 13:46:47;;;;;;;17.00;12.03;;;;;;;;;;5033184;28;20700;-68
2023/01/23 13:49:50;;;;;;;19.13;12.70;;;;;;;;;;5039981;28;20206;-68
2023/01/23 13:58:07;;;;;;;16.93;12.50;;;;;;;;;;5045720;28;20185;-68
2023/01/23 14:00:34;;;;;;;19.37;12.27;;;;;;;;;;5039113;28;20193;-68
2023/01/23 14:06:02;;;;;;;18.97;12.33;;;;;;;;;;5019555;28;20415;-69
2023/01/23 14:08:27;;;;;;;20.97;13.33;;;;;;;;;;5008824;28;20550;-68
2023/01/23 14:10:53;;;;;;;20.30;12.87;;;;;;;;;;5022176;28;20248;-69
2023/01/23 14:13:21;;;;;;;20.77;12.60;;;;;;;;;;5023353;28;20236;-68
2023/01/23 14:16:09;;;;;;;21.63;13.33;;;;;;;;;;5032518;28;20192;-68
2023/01/23 14:18:48;;;;;;;19.17;12.87;;;;;;;;;;5034682;28;20213;-69
2023/01/23 14:21:25;;;;;;;21.10;13.03;;;;;;;;;;5031975;28;20248;-68
2023/01/23 14:24:00;;;;;;;19.77;13.50;;;;;;;;;;5037130;28;20564;-68
2023/01/23 14:26:34;;;;;;;19.43;12.30;;;;;;;;;;5027033;28;20225;-68
2023/01/23 14:29:03;;;;;;;18.87;13.63;;;;;;;;;;5038520;28;20186;-68
2023/01/23 14:31:36;;;;;;;21.93;13.23;;;;;;;;;;5036920;28;20182;-68
2023/01/23 14:34:15;;;;;;;21.33;13.20;;;;;;;;;;5043600;28;21259;-68
2023/01/23 14:37:02;;;;;;;22.90;13.67;;;;;;;;;;5040116;28;20654;-69
2023/01/23 14:39:29;;;;;;;21.67;13.23;;;;;;;;;;5027906;28;20189;-68
2023/01/23 14:41:57;;;;;;;21.30;12.73;;;;;;;;;;5041095;28;20174;-68
2023/01/23 14:44:28;;;;;;;22.20;13.93;;;;;;;;;;5048174;28;20182;-69
2023/01/23 14:46:56;;;;;;;20.13;13.80;;;;;;;;;;5036729;28;20185;-68
2023/01/23 14:49:33;;;;;;;22.33;14.17;;;;;;;;;;5039449;28;20219;-68